Time;durP1;ratioP1;P1;durP2;ratioP2;P2;SDS_P1;SDS_P2;PMS_P1;PMS_P2;Temp;Humidity;BMP_temperature;BMP_pressure;BME280_temperature;BME280_humidity;BME280_pressure;Samples;Min_cycle;Max_cycle;Signal;HPM_P1;HPM_P2
2022/08/17 00:01:28;;;;;;;;;;;22.40;83.70;;;;;;4916664;29;19926;-82
2022/08/17 00:04:17;;;;;;;;;;;22.40;83.90;;;;;;4921461;29;19931;-84
2022/08/17 00:06:45;;;;;;;;;;;22.40;83.90;;;;;;4938717;29;19982;-81
2022/08/17 00:09:15;;;;;;;;;;;22.30;84.20;;;;;;4927036;29;19935;-85
2022/08/17 00:11:46;;;;;;;;;;;22.30;84.40;;;;;;4916787;29;19983;-82
2022/08/17 00:14:33;;;;;;;;;;;22.30;84.60;;;;;;4920045;28;20041;-85
2022/08/17 00:17:02;;;;;;;;;;;22.30;84.70;;;;;;4915415;29;19982;-81
2022/08/17 00:19:31;;;;;;;;;;;22.30;84.80;;;;;;4943888;29;19969;-85
2022/08/17 00:21:59;;;;;;;;;;;22.20;84.50;;;;;;4938681;29;19966;-82
2022/08/17 00:24:46;;;;;;;;;;;22.20;84.50;;;;;;4913247;29;20026;-84
2022/08/17 00:27:13;;;;;;;;;;;22.30;84.40;;;;;;4940758;29;19931;-88
2022/08/17 00:29:41;;;;;;;;;;;22.30;83.90;;;;;;4916242;29;19978;-89
2022/08/17 00:32:07;;;;;;;;;;;22.30;83.80;;;;;;4914102;29;19987;-87
2022/08/17 00:34:54;;;;;;;;;;;22.20;83.40;;;;;;4915217;29;20017;-84
2022/08/17 00:37:21;;;;;;;;;;;22.20;83.00;;;;;;4921018;29;19930;-86
2022/08/17 00:39:48;;;;;;;;;;;22.20;82.80;;;;;;4934237;29;19931;-83
2022/08/17 00:42:16;;;;;;;;;;;22.20;83.30;;;;;;4911437;29;20384;-83
2022/08/17 00:44:43;;;;;;;;;;;22.20;83.10;;;;;;4917611;29;19926;-82
2022/08/17 00:47:10;;;;;;;;;;;22.20;83.50;;;;;;4920710;29;19962;-83
2022/08/17 00:49:37;;;;;;;;;;;22.20;83.50;;;;;;4914325;29;19931;-84
2022/08/17 00:52:07;;;;;;;;;;;22.20;83.50;;;;;;4908432;29;19931;-83
2022/08/17 00:54:39;;;;;;;;;;;22.10;84.80;;;;;;4924737;29;19949;-87
2022/08/17 00:57:09;;;;;;;;;;;22.10;84.60;;;;;;4913666;29;19927;-85
2022/08/17 00:59:38;;;;;;;;;;;22.00;84.80;;;;;;4915240;29;20300;-85
2022/08/17 01:02:07;;;;;;;;;;;22.00;84.30;;;;;;4905941;29;19991;-84
2022/08/17 01:04:34;;;;;;;;;;;22.00;84.40;;;;;;4912336;29;19992;-88
2022/08/17 01:07:02;;;;;;;;;;;22.00;85.40;;;;;;4916377;29;19927;-85
2022/08/17 01:09:29;;;;;;;;;;;22.00;85.40;;;;;;4910258;29;19998;-86
2022/08/17 01:11:56;;;;;;;;;;;22.10;85.20;;;;;;4917070;29;19931;-87
2022/08/17 01:14:24;;;;;;;;;;;22.10;85.00;;;;;;4913069;29;20398;-84
2022/08/17 01:16:53;;;;;;;;;;;22.10;84.20;;;;;;4918761;29;19974;-89
2022/08/17 01:19:22;;;;;;;;;;;22.10;83.60;;;;;;4912758;29;19931;-88
2022/08/17 01:21:51;;;;;;;;;;;22.20;83.10;;;;;;4915062;29;19981;-86
2022/08/17 01:24:18;;;;;;;;;;;22.20;83.60;;;;;;4916834;29;19927;-85
2022/08/17 01:26:46;;;;;;;;;;;22.20;83.40;;;;;;4935161;29;19935;-87
2022/08/17 01:29:14;;;;;;;;;;;22.10;83.10;;;;;;4914660;29;20014;-84
2022/08/17 01:31:45;;;;;;;;;;;22.10;84.60;;;;;;4915006;29;19927;-84
2022/08/17 01:34:13;;;;;;;;;;;22.10;84.50;;;;;;4930828;29;19927;-87
2022/08/17 01:36:41;;;;;;;;;;;22.10;85.40;;;;;;4920947;29;19927;-86
2022/08/17 01:39:10;;;;;;;;;;;22.10;85.80;;;;;;4937441;29;19930;-88
2022/08/17 01:41:39;;;;;;;;;;;22.00;86.00;;;;;;4937208;29;19982;-87
2022/08/17 01:44:08;;;;;;;;;;;22.00;86.50;;;;;;4936059;29;19982;-87
2022/08/17 01:46:35;;;;;;;;;;;22.00;86.40;;;;;;4919431;29;19927;-81
2022/08/17 01:49:07;;;;;;;;;;;22.00;87.40;;;;;;4938090;29;19978;-84
2022/08/17 01:51:33;;;;;;;;;;;22.00;88.50;;;;;;4923049;29;19934;-86
2022/08/17 01:54:04;;;;;;;;;;;21.90;88.50;;;;;;4939367;29;19927;-82
2022/08/17 01:56:31;;;;;;;;;;;21.90;88.40;;;;;;4921868;29;20597;-82
2022/08/17 01:58:58;;;;;;;;;;;21.90;88.20;;;;;;4922563;29;19985;-83
2022/08/17 02:01:33;;;;;;;;;;;21.90;88.10;;;;;;4920329;29;20022;-85
2022/08/17 02:04:00;;;;;;;;;;;22.00;88.10;;;;;;4920387;29;19930;-82
2022/08/17 02:06:29;;;;;;;;;;;22.00;88.00;;;;;;4925801;29;20402;-86
2022/08/17 02:08:57;;;;;;;;;;;22.00;87.80;;;;;;4923424;29;19971;-85
2022/08/17 02:11:30;;;;;;;;;;;22.00;87.80;;;;;;4932588;29;19931;-87
2022/08/17 02:13:58;;;;;;;;;;;22.00;87.70;;;;;;4937192;29;20300;-87
2022/08/17 02:16:33;;;;;;;;;;;22.00;88.90;;;;;;4916824;29;20315;-85
2022/08/17 02:19:08;;;;;;;;;;;21.90;89.20;;;;;;4927137;29;20018;-83
2022/08/17 02:21:36;;;;;;;;;;;21.90;88.20;;;;;;4921184;29;19986;-82
2022/08/17 02:24:04;;;;;;;;;;;21.90;88.10;;;;;;4937612;29;20327;-82
2022/08/17 02:26:31;;;;;;;;;;;21.90;88.10;;;;;;4915701;29;19930;-85
2022/08/17 02:28:58;;;;;;;;;;;21.90;87.90;;;;;;4922338;29;19926;-83
2022/08/17 02:31:25;;;;;;;;;;;21.90;87.90;;;;;;4911113;29;19988;-85
2022/08/17 02:33:51;;;;;;;;;;;21.90;88.10;;;;;;4900516;29;20375;-84
2022/08/17 02:36:29;;;;;;;;;;;21.90;87.90;;;;;;4927949;29;19930;-84
2022/08/17 02:38:57;;;;;;;;;;;22.00;88.10;;;;;;4923180;29;19934;-84
2022/08/17 02:41:24;;;;;;;;;;;22.00;88.20;;;;;;4941692;28;19927;-85
2022/08/17 02:43:51;;;;;;;;;;;22.00;88.50;;;;;;4917371;29;19985;-87
2022/08/17 02:46:18;;;;;;;;;;;22.00;88.50;;;;;;4923409;29;19981;-83
2022/08/17 02:48:46;;;;;;;;;;;22.00;88.60;;;;;;4923308;29;20391;-82
2022/08/17 02:51:13;;;;;;;;;;;22.00;88.60;;;;;;4921011;29;19927;-82
2022/08/17 02:53:40;;;;;;;;;;;22.10;88.80;;;;;;4912578;29;19935;-83
2022/08/17 02:56:07;;;;;;;;;;;22.10;88.70;;;;;;4932986;29;19927;-83
2022/08/17 02:58:33;;;;;;;;;;;22.00;88.90;;;;;;4922765;29;19954;-82
2022/08/17 03:01:05;;;;;;;;;;;22.10;89.40;;;;;;4921114;29;20468;-82
2022/08/17 03:03:32;;;;;;;;;;;22.00;89.00;;;;;;4931983;29;19926;-82
2022/08/17 03:05:59;;;;;;;;;;;22.00;89.00;;;;;;4923081;29;19926;-81
2022/08/17 03:08:27;;;;;;;;;;;22.00;88.70;;;;;;4916007;29;19930;-83
2022/08/17 03:10:53;;;;;;;;;;;22.00;88.50;;;;;;4913821;29;19931;-82
2022/08/17 03:13:21;;;;;;;;;;;22.00;88.10;;;;;;4937669;29;19978;-85
2022/08/17 03:15:48;;;;;;;;;;;21.90;87.80;;;;;;4908955;29;19974;-84
2022/08/17 03:18:16;;;;;;;;;;;21.90;87.70;;;;;;4924123;28;19965;-85
2022/08/17 03:20:51;;;;;;;;;;;21.90;87.70;;;;;;4916031;29;19930;-82
2022/08/17 03:23:18;;;;;;;;;;;21.80;87.60;;;;;;4921667;29;19927;-83
2022/08/17 03:25:50;;;;;;;;;;;21.80;87.70;;;;;;4920738;29;19966;-85
2022/08/17 03:28:19;;;;;;;;;;;21.70;88.10;;;;;;4923996;29;19933;-87
2022/08/17 03:30:46;;;;;;;;;;;21.60;88.40;;;;;;4919903;29;19927;-87
2022/08/17 03:33:13;;;;;;;;;;;21.60;88.40;;;;;;4925279;29;19927;-88
2022/08/17 03:35:40;;;;;;;;;;;21.50;88.20;;;;;;4914295;29;19986;-82
2022/08/17 03:38:08;;;;;;;;;;;21.50;88.60;;;;;;4924488;29;19955;-82
2022/08/17 03:40:36;;;;;;;;;;;21.50;88.70;;;;;;4914458;29;19935;-86
2022/08/17 03:43:23;;;;;;;;;;;21.40;88.90;;;;;;4921992;29;20013;-85
2022/08/17 03:57:10;;;;;;;;;;;21.40;90.00;;;;;;4936644;29;19931;-84
2022/08/17 03:59:37;;;;;;;;;;;21.50;90.20;;;;;;4921834;28;19927;-85
2022/08/17 04:02:07;;;;;;;;;;;21.50;90.20;;;;;;4918300;29;19927;-89
2022/08/17 04:04:35;;;;;;;;;;;21.50;90.20;;;;;;4921567;29;20340;-85
2022/08/17 04:07:02;;;;;;;;;;;21.50;90.10;;;;;;4915554;29;19992;-87
2022/08/17 04:09:29;;;;;;;;;;;21.50;90.00;;;;;;4919166;29;19931;-86
2022/08/17 04:11:56;;;;;;;;;;;21.50;90.00;;;;;;4936885;29;19934;-88
2022/08/17 04:14:32;;;;;;;;;;;21.50;90.00;;;;;;4918945;29;20021;-88
2022/08/17 04:16:59;;;;;;;;;;;21.50;90.30;;;;;;4911451;29;19927;-85
2022/08/17 04:19:25;;;;;;;;;;;21.50;90.40;;;;;;4939357;29;20017;-87
2022/08/17 04:21:52;;;;;;;;;;;21.40;90.80;;;;;;4914925;29;19982;-88
2022/08/17 04:24:19;;;;;;;;;;;21.40;91.10;;;;;;4923438;29;19978;-85
2022/08/17 04:26:47;;;;;;;;;;;21.40;91.60;;;;;;4926720;29;19969;-85
2022/08/17 04:29:20;;;;;;;;;;;21.30;92.00;;;;;;4939462;29;20391;-85
2022/08/17 04:31:47;;;;;;;;;;;21.30;92.20;;;;;;4913704;29;20343;-86
2022/08/17 04:34:13;;;;;;;;;;;21.30;92.00;;;;;;4938997;29;19993;-85
2022/08/17 04:36:45;;;;;;;;;;;21.30;92.40;;;;;;4927021;29;19930;-85
2022/08/17 04:39:16;;;;;;;;;;;21.30;91.90;;;;;;4929407;29;19938;-87
2022/08/17 04:44:28;;;;;;;;;;;21.30;91.70;;;;;;4940095;29;19926;-88
2022/08/17 04:47:03;;;;;;;;;;;21.30;91.60;;;;;;4923877;29;19959;-81
2022/08/17 04:49:31;;;;;;;;;;;21.40;92.10;;;;;;4939479;29;19994;-83
2022/08/17 04:51:58;;;;;;;;;;;21.40;91.80;;;;;;4941796;29;19974;-83
2022/08/17 04:54:30;;;;;;;;;;;21.40;91.60;;;;;;4920104;29;19927;-84
2022/08/17 04:56:57;;;;;;;;;;;21.50;91.50;;;;;;4917894;29;19931;-83
2022/08/17 04:59:24;;;;;;;;;;;21.50;91.40;;;;;;4911402;29;19951;-86
2022/08/17 05:01:51;;;;;;;;;;;21.50;91.30;;;;;;4918322;29;20403;-88
2022/08/17 05:04:19;;;;;;;;;;;21.60;91.30;;;;;;4935417;29;19955;-86
2022/08/17 05:07:01;;;;;;;;;;;21.60;91.10;;;;;;4926700;29;19934;-86
2022/08/17 05:09:28;;;;;;;;;;;21.60;91.00;;;;;;4926040;29;19927;-89
2022/08/17 05:11:54;;;;;;;;;;;21.70;90.90;;;;;;4919840;29;19927;-84
2022/08/17 05:14:21;;;;;;;;;;;21.70;90.90;;;;;;4924857;29;20017;-85
2022/08/17 05:16:59;;;;;;;;;;;21.70;90.80;;;;;;4923249;29;20375;-86
2022/08/17 05:19:27;;;;;;;;;;;21.70;90.60;;;;;;4925106;29;19961;-88
2022/08/17 05:21:54;;;;;;;;;;;21.70;90.50;;;;;;4927641;29;19961;-85
2022/08/17 05:24:21;;;;;;;;;;;21.70;90.50;;;;;;4920961;29;20446;-88
2022/08/17 05:27:07;;;;;;;;;;;21.70;90.50;;;;;;4925445;29;20444;-84
2022/08/17 05:29:35;;;;;;;;;;;21.70;90.70;;;;;;4921121;29;19927;-88
2022/08/17 05:32:12;;;;;;;;;;;21.70;91.00;;;;;;4909651;29;19974;-86
2022/08/17 05:34:59;;;;;;;;;;;21.70;91.30;;;;;;4917677;29;19931;-85
2022/08/17 05:37:26;;;;;;;;;;;21.60;90.90;;;;;;4915671;29;19927;-85
2022/08/17 05:39:53;;;;;;;;;;;21.70;90.90;;;;;;4937085;29;19927;-87
2022/08/17 05:42:20;;;;;;;;;;;21.70;91.10;;;;;;4922007;29;20017;-85
2022/08/17 05:44:47;;;;;;;;;;;21.70;91.20;;;;;;4932069;29;19927;-88
2022/08/17 05:47:14;;;;;;;;;;;21.70;91.30;;;;;;4910671;29;19966;-88
2022/08/17 05:49:41;;;;;;;;;;;21.80;91.20;;;;;;4907537;29;19986;-86
2022/08/17 05:52:15;;;;;;;;;;;21.80;91.30;;;;;;4918247;29;19928;-85
2022/08/17 05:55:04;;;;;;;;;;;21.80;91.10;;;;;;4935371;29;19931;-86
2022/08/17 05:57:34;;;;;;;;;;;21.80;91.00;;;;;;4917521;29;20360;-84
2022/08/17 06:00:06;;;;;;;;;;;21.80;91.00;;;;;;4921487;29;19931;-85
2022/08/17 06:02:44;;;;;;;;;;;21.80;91.10;;;;;;4922302;29;20388;-85
2022/08/17 06:05:14;;;;;;;;;;;21.80;91.50;;;;;;4938264;29;20013;-85
2022/08/17 06:07:47;;;;;;;;;;;21.80;91.70;;;;;;4918562;29;19935;-83
2022/08/17 06:10:17;;;;;;;;;;;21.70;91.50;;;;;;4916316;29;19927;-82
2022/08/17 06:12:47;;;;;;;;;;;21.80;91.40;;;;;;4917580;29;19931;-86
2022/08/17 06:15:32;;;;;;;;;;;21.80;91.20;;;;;;4916152;29;19934;-85
2022/08/17 06:18:02;;;;;;;;;;;21.90;91.10;;;;;;4933085;28;19927;-83
2022/08/17 06:20:34;;;;;;;;;;;21.90;90.90;;;;;;4913499;29;19935;-83
2022/08/17 06:23:04;;;;;;;;;;;22.00;90.90;;;;;;4913817;29;19994;-83
2022/08/17 06:25:33;;;;;;;;;;;22.10;90.80;;;;;;4937969;29;19989;-85
2022/08/17 06:28:13;;;;;;;;;;;22.10;90.90;;;;;;4919543;29;19931;-87
2022/08/17 06:30:47;;;;;;;;;;;22.20;90.90;;;;;;4919098;29;20235;-84
2022/08/17 06:33:32;;;;;;;;;;;22.20;90.70;;;;;;4920015;29;19927;-86
2022/08/17 06:36:04;;;;;;;;;;;22.30;90.60;;;;;;4921421;29;19951;-88
2022/08/17 06:38:54;;;;;;;;;;;22.30;90.50;;;;;;4922379;29;19934;-88
2022/08/17 06:41:33;;;;;;;;;;;22.30;90.40;;;;;;4925087;29;19986;-86
2022/08/17 06:44:06;;;;;;;;;;;22.40;90.30;;;;;;4925008;29;20047;-84
2022/08/17 06:46:35;;;;;;;;;;;22.40;90.30;;;;;;4918944;29;19987;-87
2022/08/17 06:49:12;;;;;;;;;;;22.40;90.30;;;;;;4930429;29;19926;-87
2022/08/17 06:51:39;;;;;;;;;;;22.40;90.30;;;;;;4926650;29;20372;-84
2022/08/17 06:54:18;;;;;;;;;;;22.40;90.40;;;;;;4926152;29;20387;-85
2022/08/17 06:56:56;;;;;;;;;;;22.40;90.50;;;;;;4903448;29;20447;-85
2022/08/17 06:59:32;;;;;;;;;;;22.40;90.50;;;;;;4916164;29;19994;-85
2022/08/17 07:02:26;;;;;;;;;;;22.40;90.20;;;;;;4943804;29;20363;-85
2022/08/17 07:05:14;;;;;;;;;;;22.50;90.00;;;;;;4923972;29;19958;-85
2022/08/17 07:08:01;;;;;;;;;;;22.50;90.10;;;;;;4939653;29;19931;-85
2022/08/17 07:10:49;;;;;;;;;;;22.50;90.10;;;;;;4927579;29;19934;-85
2022/08/17 07:13:17;;;;;;;;;;;22.60;90.00;;;;;;4906014;29;19983;-87
2022/08/17 07:15:43;;;;;;;;;;;22.60;89.60;;;;;;4912029;29;19927;-85
2022/08/17 07:18:10;;;;;;;;;;;22.60;89.40;;;;;;4937765;29;19927;-87
2022/08/17 07:20:41;;;;;;;;;;;22.60;89.40;;;;;;4928724;29;20025;-85
2022/08/17 07:23:08;;;;;;;;;;;22.70;90.00;;;;;;4925606;29;19927;-86
2022/08/17 07:25:35;;;;;;;;;;;22.70;89.60;;;;;;4925166;29;19962;-86
2022/08/17 07:28:04;;;;;;;;;;;22.80;89.40;;;;;;4943648;29;19938;-83
2022/08/17 07:30:32;;;;;;;;;;;22.80;89.00;;;;;;4920892;29;20363;-84
2022/08/17 07:33:13;;;;;;;;;;;23.00;89.50;;;;;;4944694;28;19931;-82
2022/08/17 07:35:41;;;;;;;;;;;23.10;88.90;;;;;;4941331;29;19930;-83
2022/08/17 07:38:29;;;;;;;;;;;23.30;88.00;;;;;;4921822;29;19927;-84
2022/08/17 07:41:03;;;;;;;;;;;23.40;87.20;;;;;;4937166;29;19930;-84
2022/08/17 07:43:34;;;;;;;;;;;23.60;85.80;;;;;;4919836;29;19927;-84
2022/08/17 07:48:53;;;;;;;;;;;23.90;82.40;;;;;;4938236;28;19926;-88
2022/08/17 07:51:26;;;;;;;;;;;24.10;80.80;;;;;;4918912;29;19987;-88
2022/08/17 07:53:54;;;;;;;;;;;24.20;79.20;;;;;;4920595;29;19982;-85
2022/08/17 07:56:49;;;;;;;;;;;24.20;77.30;;;;;;4933860;29;19933;-88
2022/08/17 07:59:20;;;;;;;;;;;24.30;76.90;;;;;;4922580;29;19930;-87
2022/08/17 08:01:55;;;;;;;;;;;24.30;76.70;;;;;;4920965;29;19990;-86
2022/08/17 08:04:29;;;;;;;;;;;24.30;77.10;;;;;;4937755;29;19934;-84
2022/08/17 08:07:15;;;;;;;;;;;24.40;77.50;;;;;;4938671;29;19970;-85
2022/08/17 08:09:43;;;;;;;;;;;24.40;77.20;;;;;;4936075;29;20005;-87
2022/08/17 08:12:32;;;;;;;;;;;24.50;78.20;;;;;;4939697;29;19982;-84
2022/08/17 08:15:01;;;;;;;;;;;24.60;78.30;;;;;;4913545;29;19974;-84
2022/08/17 08:17:34;;;;;;;;;;;24.60;78.10;;;;;;4932330;29;19990;-88
2022/08/17 08:20:05;;;;;;;;;;;24.60;77.60;;;;;;4925938;29;19967;-88
2022/08/17 08:23:17;;;;;;;;;;;24.60;76.90;;;;;;4918789;29;20033;-84
2022/08/17 08:25:55;;;;;;;;;;;24.70;76.10;;;;;;4921631;29;19927;-86
2022/08/17 08:28:32;;;;;;;;;;;24.70;75.70;;;;;;4933165;29;19931;-84
2022/08/17 08:31:06;;;;;;;;;;;24.70;75.30;;;;;;4910612;29;19978;-87
2022/08/17 08:33:55;;;;;;;;;;;24.80;74.50;;;;;;4920785;29;19926;-87
2022/08/17 08:36:22;;;;;;;;;;;24.80;74.40;;;;;;4935487;29;19978;-86
2022/08/17 08:39:09;;;;;;;;;;;24.90;73.20;;;;;;4934927;29;19982;-86
2022/08/17 08:41:43;;;;;;;;;;;25.00;72.30;;;;;;4932056;29;20288;-87
2022/08/17 08:44:22;;;;;;;;;;;25.20;71.40;;;;;;4910850;29;19931;-85
2022/08/17 08:47:33;;;;;;;;;;;25.30;70.40;;;;;;4920780;29;20451;-86
2022/08/17 08:50:01;;;;;;;;;;;25.60;71.00;;;;;;4930702;29;19931;-86
2022/08/17 08:52:43;;;;;;;;;;;26.00;71.40;;;;;;4916749;29;19931;-85
2022/08/17 08:55:17;;;;;;;;;;;26.30;69.70;;;;;;4914540;29;19983;-87
2022/08/17 08:57:51;;;;;;;;;;;26.60;67.90;;;;;;4916092;29;20042;-85
2022/08/17 09:00:21;;;;;;;;;;;26.80;67.10;;;;;;4914852;29;19979;-85
2022/08/17 09:03:07;;;;;;;;;;;27.00;64.50;;;;;;4910545;29;19927;-82
2022/08/17 09:05:40;;;;;;;;;;;27.00;63.70;;;;;;4936885;29;19978;-82
2022/08/17 09:08:16;;;;;;;;;;;27.10;64.20;;;;;;4923361;29;19931;-84
2022/08/17 09:10:56;;;;;;;;;;;27.20;63.90;;;;;;4915936;29;19950;-83
2022/08/17 09:13:28;;;;;;;;;;;27.10;63.50;;;;;;4916951;29;19935;-81
2022/08/17 09:16:01;;;;;;;;;;;27.10;63.40;;;;;;4920389;29;19931;-81
2022/08/17 09:18:34;;;;;;;;;;;26.80;62.80;;;;;;4934092;29;20355;-87
2022/08/17 09:21:51;;;;;;;;;;;26.60;63.70;;;;;;4924329;29;19926;-81
2022/08/17 09:24:24;;;;;;;;;;;26.60;64.40;;;;;;4910165;29;19934;-84
2022/08/17 09:27:09;;;;;;;;;;;26.50;65.20;;;;;;4922630;29;19931;-81
2022/08/17 09:29:38;;;;;;;;;;;26.50;64.70;;;;;;4914720;29;19931;-84
2022/08/17 09:32:17;;;;;;;;;;;26.50;64.50;;;;;;4916198;29;19989;-85
2022/08/17 09:34:51;;;;;;;;;;;26.50;64.90;;;;;;4908049;29;19926;-85
2022/08/17 09:37:26;;;;;;;;;;;26.50;65.20;;;;;;4919255;29;19926;-82
2022/08/17 09:40:02;;;;;;;;;;;26.50;65.60;;;;;;4933080;29;19951;-83
2022/08/17 09:42:31;;;;;;;;;;;26.50;65.40;;;;;;4914410;29;19934;-84
2022/08/17 09:45:06;;;;;;;;;;;26.50;65.50;;;;;;4917324;29;19962;-84
2022/08/17 09:47:38;;;;;;;;;;;26.60;64.50;;;;;;4914278;29;19927;-81
2022/08/17 09:50:10;;;;;;;;;;;26.70;64.30;;;;;;4921133;29;19930;-84
2022/08/17 09:52:37;;;;;;;;;;;26.90;64.20;;;;;;4926753;29;20034;-85
2022/08/17 09:55:04;;;;;;;;;;;27.10;63.00;;;;;;4919877;29;19927;-84
2022/08/17 09:57:42;;;;;;;;;;;27.10;63.40;;;;;;4916266;29;19930;-81
2022/08/17 10:00:14;;;;;;;;;;;27.20;62.60;;;;;;4935799;29;19931;-85
2022/08/17 10:02:56;;;;;;;;;;;27.20;62.70;;;;;;4919152;29;19930;-85
2022/08/17 10:05:29;;;;;;;;;;;27.20;61.40;;;;;;4916215;29;19982;-81
2022/08/17 10:07:59;;;;;;;;;;;27.10;61.60;;;;;;4916108;29;20406;-84
2022/08/17 10:10:28;;;;;;;;;;;27.10;62.40;;;;;;4937635;29;19982;-87
2022/08/17 10:13:08;;;;;;;;;;;27.10;61.40;;;;;;4938351;28;19926;-84
2022/08/17 10:15:38;;;;;;;;;;;27.00;60.60;;;;;;4919449;29;19956;-81
2022/08/17 10:18:17;;;;;;;;;;;27.10;61.10;;;;;;4917378;29;20021;-84
2022/08/17 10:20:46;;;;;;;;;;;27.10;60.70;;;;;;4919305;29;19926;-84
2022/08/17 10:26:14;;;;;;;;;;;27.20;60.50;;;;;;4933051;29;19978;-81
2022/08/17 10:28:40;;;;;;;;;;;27.20;60.10;;;;;;4933057;29;19955;-82
2022/08/17 10:31:09;;;;;;;;;;;27.20;60.50;;;;;;4921681;29;20340;-84
2022/08/17 10:34:05;;;;;;;;;;;27.30;60.20;;;;;;4940662;29;20407;-83
2022/08/17 10:36:32;;;;;;;;;;;27.40;60.00;;;;;;4930223;29;19953;-83
2022/08/17 10:39:08;;;;;;;;;;;27.50;59.80;;;;;;4933992;29;19927;-84
2022/08/17 10:41:40;;;;;;;;;;;27.60;59.80;;;;;;4926874;29;19943;-84
2022/08/17 10:44:12;;;;;;;;;;;27.70;59.00;;;;;;4912434;29;20392;-83
2022/08/17 10:47:02;;;;;;;;;;;27.80;58.90;;;;;;4914441;29;20005;-82
2022/08/17 10:49:32;;;;;;;;;;;27.90;58.70;;;;;;4935370;29;19931;-82
2022/08/17 10:52:01;;;;;;;;;;;28.00;57.90;;;;;;4934943;29;19949;-84
2022/08/17 10:54:51;;;;;;;;;;;28.10;58.50;;;;;;4920317;29;19934;-84
2022/08/17 10:57:27;;;;;;;;;;;28.10;57.00;;;;;;4931887;29;19931;-85
2022/08/17 10:59:54;;;;;;;;;;;28.10;56.90;;;;;;4917120;29;19930;-81
2022/08/17 11:02:24;;;;;;;;;;;28.10;56.70;;;;;;4915629;29;20344;-83
2022/08/17 11:05:10;;;;;;;;;;;28.10;57.30;;;;;;4917920;29;19927;-81
2022/08/17 11:07:57;;;;;;;;;;;28.10;57.20;;;;;;4918801;29;19978;-83
2022/08/17 11:10:30;;;;;;;;;;;27.90;57.40;;;;;;4923169;29;19935;-84
2022/08/17 11:13:03;;;;;;;;;;;27.80;57.70;;;;;;4931288;28;19931;-85
2022/08/17 11:15:50;;;;;;;;;;;27.70;58.30;;;;;;4924562;29;19927;-83
2022/08/17 11:18:22;;;;;;;;;;;27.70;58.10;;;;;;4922485;28;20388;-85
2022/08/17 11:21:07;;;;;;;;;;;27.60;57.00;;;;;;4923439;29;19954;-81
2022/08/17 11:23:44;;;;;;;;;;;27.50;57.80;;;;;;4910598;29;19926;-82
2022/08/17 11:26:25;;;;;;;;;;;27.40;58.80;;;;;;4928207;29;19982;-80
2022/08/17 11:28:55;;;;;;;;;;;27.40;59.20;;;;;;4942049;29;19938;-81
2022/08/17 11:31:27;;;;;;;;;;;27.30;59.50;;;;;;4926018;29;19931;-84
2022/08/17 11:34:12;;;;;;;;;;;27.40;59.60;;;;;;4936051;29;19927;-81
2022/08/17 11:36:45;;;;;;;;;;;27.50;60.50;;;;;;4928425;29;20391;-81
2022/08/17 11:39:11;;;;;;;;;;;27.70;59.50;;;;;;4924243;29;20342;-83
2022/08/17 11:41:55;;;;;;;;;;;27.70;59.10;;;;;;4920001;29;19927;-81
2022/08/17 11:44:36;;;;;;;;;;;27.80;59.00;;;;;;4919372;29;20351;-81
2022/08/17 11:52:53;;;;;;;;;;;27.70;59.20;;;;;;4938438;29;19926;-83
2022/08/17 11:55:26;;;;;;;;;;;27.70;60.00;;;;;;4925141;29;19930;-85
2022/08/17 11:58:24;;;;;;;;;;;27.60;59.90;;;;;;4935106;29;20037;-85
2022/08/17 12:00:55;;;;;;;;;;;27.60;60.40;;;;;;4913125;29;19962;-83
2022/08/17 12:03:30;;;;;;;;;;;27.60;60.50;;;;;;4939875;29;19927;-82
2022/08/17 12:06:16;;;;;;;;;;;27.60;61.00;;;;;;4937395;29;20339;-86
2022/08/17 12:08:46;;;;;;;;;;;27.70;61.00;;;;;;4917366;29;19994;-83
2022/08/17 12:11:18;;;;;;;;;;;27.80;60.10;;;;;;4936417;29;20006;-83
2022/08/17 12:14:06;;;;;;;;;;;27.90;60.10;;;;;;4930364;29;19958;-84
2022/08/17 12:16:33;;;;;;;;;;;28.00;60.30;;;;;;4916100;29;19999;-83
2022/08/17 12:19:01;;;;;;;;;;;28.00;60.20;;;;;;4925595;29;20047;-79
2022/08/17 12:21:36;;;;;;;;;;;28.10;60.00;;;;;;4920246;29;19974;-85
2022/08/17 12:24:11;;;;;;;;;;;28.20;59.30;;;;;;4908985;29;19939;-80
2022/08/17 12:26:42;;;;;;;;;;;28.10;59.60;;;;;;4924830;29;19927;-81
2022/08/17 12:29:15;;;;;;;;;;;28.20;59.70;;;;;;4917077;29;19934;-80
2022/08/17 12:32:03;;;;;;;;;;;28.30;59.60;;;;;;4910571;29;20014;-85
2022/08/17 12:34:37;;;;;;;;;;;28.40;59.70;;;;;;4915890;29;19934;-84
2022/08/17 12:37:06;;;;;;;;;;;28.50;58.90;;;;;;4936004;29;19931;-84
2022/08/17 12:39:33;;;;;;;;;;;28.50;57.90;;;;;;4941574;29;20431;-84
2022/08/17 12:42:00;;;;;;;;;;;28.30;58.70;;;;;;4915960;29;19927;-84
2022/08/17 12:44:30;;;;;;;;;;;28.20;59.20;;;;;;4935480;29;20447;-80
2022/08/17 12:47:03;;;;;;;;;;;28.10;59.80;;;;;;4905099;29;20513;-83
2022/08/17 12:49:34;;;;;;;;;;;28.00;60.00;;;;;;4915101;29;19978;-80
2022/08/17 12:52:04;;;;;;;;;;;28.00;60.50;;;;;;4922778;29;19981;-83
2022/08/17 12:54:40;;;;;;;;;;;28.00;59.80;;;;;;4928358;29;19982;-82
2022/08/17 12:57:12;;;;;;;;;;;27.90;59.10;;;;;;4930485;29;19959;-83
2022/08/17 12:59:40;;;;;;;;;;;27.80;59.40;;;;;;4918806;29;19941;-83
2022/08/17 13:02:15;;;;;;;;;;;27.70;58.90;;;;;;4919303;29;20362;-84
2022/08/17 13:04:42;;;;;;;;;;;27.60;60.30;;;;;;4939271;29;19927;-82
2022/08/17 13:07:09;;;;;;;;;;;27.60;60.60;;;;;;4911763;28;19978;-82
2022/08/17 13:09:36;;;;;;;;;;;27.60;60.60;;;;;;4934335;29;19931;-83
2022/08/17 13:12:07;;;;;;;;;;;27.60;60.50;;;;;;4923203;29;19930;-85
2022/08/17 13:14:34;;;;;;;;;;;27.50;60.00;;;;;;4921204;29;19930;-79
2022/08/17 13:17:03;;;;;;;;;;;27.40;60.40;;;;;;4939961;29;19930;-84
2022/08/17 13:19:46;;;;;;;;;;;27.40;60.20;;;;;;4919277;29;20025;-83
2022/08/17 13:22:13;;;;;;;;;;;27.20;60.10;;;;;;4918180;29;20311;-82
2022/08/17 13:24:51;;;;;;;;;;;27.10;60.60;;;;;;4904510;29;20452;-84
2022/08/17 13:27:20;;;;;;;;;;;27.00;61.00;;;;;;4909085;29;19963;-82
2022/08/17 13:29:55;;;;;;;;;;;26.90;61.80;;;;;;4906028;29;19935;-82
2022/08/17 13:32:39;;;;;;;;;;;26.80;62.20;;;;;;4880831;29;19928;-83
2022/08/17 13:35:28;;;;;;;;;;;26.70;63.70;;;;;;4903653;29;19978;-85
2022/08/17 13:38:07;;;;;;;;;;;26.60;63.40;;;;;;4905697;29;19936;-84
2022/08/17 13:40:44;;;;;;;;;;;26.50;64.00;;;;;;4900025;29;19931;-82
2022/08/17 13:43:31;;;;;;;;;;;26.40;64.40;;;;;;4914409;29;20343;-83
2022/08/17 13:46:06;;;;;;;;;;;26.30;64.70;;;;;;4921122;29;19927;-85
2022/08/17 13:48:33;;;;;;;;;;;26.30;65.10;;;;;;4899027;29;20443;-82
2022/08/17 13:51:03;;;;;;;;;;;26.30;65.60;;;;;;4915490;29;19975;-81
2022/08/17 13:53:36;;;;;;;;;;;26.30;66.30;;;;;;4928660;29;19927;-80
2022/08/17 13:56:07;;;;;;;;;;;26.30;65.60;;;;;;4920330;29;19931;-84
2022/08/17 13:59:03;;;;;;;;;;;26.10;59.00;;;;;;4923814;29;19957;-80
2022/08/17 14:01:33;;;;;;;;;;;25.90;59.10;;;;;;4903721;29;19927;-80
2022/08/17 14:04:05;;;;;;;;;;;25.70;59.40;;;;;;4920076;29;20339;-82
2022/08/17 14:06:43;;;;;;;;;;;25.50;59.30;;;;;;4916414;29;19983;-84
2022/08/17 14:09:20;;;;;;;;;;;25.50;59.80;;;;;;4910610;29;19927;-84
2022/08/17 14:11:47;;;;;;;;;;;25.50;60.60;;;;;;4905546;29;20427;-81
2022/08/17 14:14:15;;;;;;;;;;;25.40;60.60;;;;;;4907214;29;19962;-81
2022/08/17 14:16:42;;;;;;;;;;;25.40;60.40;;;;;;4903762;29;20460;-85
2022/08/17 14:19:12;;;;;;;;;;;25.40;60.50;;;;;;4923221;29;19927;-84
2022/08/17 14:21:41;;;;;;;;;;;25.40;60.80;;;;;;4900945;29;19927;-81
2022/08/17 14:24:09;;;;;;;;;;;25.40;58.90;;;;;;4915421;29;20363;-83
2022/08/17 14:26:36;;;;;;;;;;;25.20;56.50;;;;;;4919960;29;19931;-85
2022/08/17 14:29:04;;;;;;;;;;;25.20;54.90;;;;;;4939450;29;19926;-83
2022/08/17 14:31:40;;;;;;;;;;;25.00;55.20;;;;;;4915225;29;20045;-84
2022/08/17 14:34:09;;;;;;;;;;;24.80;56.20;;;;;;4937764;29;20013;-84
2022/08/17 14:36:37;;;;;;;;;;;24.70;57.30;;;;;;4917920;29;19939;-81
2022/08/17 14:39:15;;;;;;;;;;;24.40;58.50;;;;;;4920184;29;19926;-85
2022/08/17 14:41:42;;;;;;;;;;;24.20;59.80;;;;;;4925201;29;20375;-80
2022/08/17 14:44:12;;;;;;;;;;;24.10;61.40;;;;;;4923335;29;20383;-86
2022/08/17 14:46:40;;;;;;;;;;;23.90;63.10;;;;;;4921561;29;19927;-86
2022/08/17 14:49:07;;;;;;;;;;;23.80;65.00;;;;;;4925919;29;19927;-81
2022/08/17 14:51:37;;;;;;;;;;;23.60;65.60;;;;;;4925722;29;19970;-86
2022/08/17 14:54:10;;;;;;;;;;;23.40;66.20;;;;;;4945809;29;19927;-84
2022/08/17 14:56:54;;;;;;;;;;;23.30;66.60;;;;;;4930918;29;23294;-85
2022/08/17 14:59:41;;;;;;;;;;;23.30;65.90;;;;;;4921774;29;19970;-83
2022/08/17 15:02:09;;;;;;;;;;;23.20;65.00;;;;;;4926483;29;20457;-86
2022/08/17 15:04:36;;;;;;;;;;;23.10;64.80;;;;;;4936650;29;19935;-81
2022/08/17 15:07:10;;;;;;;;;;;23.10;64.20;;;;;;4918115;29;20010;-83
2022/08/17 15:09:37;;;;;;;;;;;23.10;64.30;;;;;;4923545;29;19927;-82
2022/08/17 15:12:05;;;;;;;;;;;23.00;63.90;;;;;;4936732;29;19934;-88
2022/08/17 15:14:33;;;;;;;;;;;22.90;62.90;;;;;;4939717;29;19933;-82